createdAt,value
2018-12-20T00:00:33.016Z,50.10
2018-12-20T00:03:01.600Z,50.00
2018-12-20T00:05:32.257Z,50.10
2018-12-20T00:08:00.857Z,50.00
2018-12-20T00:10:29.503Z,50.00
2018-12-20T00:12:58.084Z,49.90
2018-12-20T00:15:26.597Z,49.80
2018-12-20T00:17:55.113Z,49.70
2018-12-20T00:20:23.632Z,49.60
2018-12-20T00:22:52.211Z,49.50
2018-12-20T00:25:20.721Z,49.60
2018-12-20T00:27:49.558Z,49.50
2018-12-20T00:30:18.223Z,49.70
2018-12-20T00:32:46.888Z,49.70
2018-12-20T00:35:15.600Z,49.70
2018-12-20T00:37:46.194Z,50.00
2018-12-20T00:40:14.792Z,50.20
2018-12-20T00:42:43.311Z,50.30
2018-12-20T00:45:11.939Z,50.20
2018-12-20T00:47:40.475Z,50.30
2018-12-20T00:50:08.985Z,50.20
2018-12-20T00:52:37.669Z,50.20
2018-12-20T00:55:06.197Z,50.10
2018-12-20T00:57:34.729Z,50.10
2018-12-20T01:00:03.392Z,50.00
2018-12-20T01:02:32.079Z,50.00
2018-12-20T01:05:00.663Z,50.10
2018-12-20T01:07:29.239Z,50.00
2018-12-20T01:09:57.741Z,50.00
2018-12-20T01:12:26.303Z,50.00
2018-12-20T01:14:54.948Z,50.00
2018-12-20T01:17:25.624Z,49.90
2018-12-20T01:19:54.197Z,50.00
2018-12-20T01:22:22.749Z,49.90
2018-12-20T01:24:51.382Z,50.00
2018-12-20T01:27:20.067Z,49.90
2018-12-20T01:29:48.691Z,50.00
2018-12-20T01:32:17.418Z,50.00
2018-12-20T01:34:46.002Z,49.90
2018-12-20T01:37:14.560Z,50.00
2018-12-20T01:39:43.094Z,50.00
2018-12-20T01:42:11.715Z,49.90
2018-12-20T01:44:40.324Z,50.00
2018-12-20T01:47:08.872Z,49.90
2018-12-20T01:49:37.894Z,50.00
2018-12-20T01:52:06.437Z,50.00
2018-12-20T01:54:35.084Z,50.00
2018-12-20T01:57:03.655Z,50.00
2018-12-20T01:59:32.224Z,49.90
2018-12-20T02:02:00.801Z,50.00
2018-12-20T02:04:29.545Z,49.90
2018-12-20T02:06:58.085Z,50.00
2018-12-20T02:09:26.722Z,50.00
2018-12-20T02:11:55.303Z,49.90
2018-12-20T02:14:23.841Z,50.00
2018-12-20T02:16:52.374Z,49.90
2018-12-20T02:19:20.886Z,49.80
2018-12-20T02:21:49.534Z,49.80
2018-12-20T02:24:18.280Z,50.40
2018-12-20T02:26:46.924Z,49.70
2018-12-20T02:29:15.762Z,49.70
2018-12-20T02:31:44.525Z,49.60
2018-12-20T02:34:13.176Z,49.60
2018-12-20T02:36:41.836Z,49.60
2018-12-20T02:39:10.597Z,49.60
2018-12-20T02:41:39.568Z,49.60
2018-12-20T02:44:08.234Z,49.60
2018-12-20T02:46:36.798Z,49.60
2018-12-20T02:49:05.689Z,49.60
2018-12-20T02:51:34.400Z,49.60
2018-12-20T02:54:03.006Z,49.60
2018-12-20T02:56:31.589Z,49.60
2018-12-20T02:59:00.134Z,49.60
2018-12-20T03:01:28.699Z,49.70
2018-12-20T03:03:57.215Z,49.70
2018-12-20T03:06:25.754Z,49.80
2018-12-20T03:08:54.278Z,49.70
2018-12-20T03:11:23.441Z,49.70
2018-12-20T03:13:52.177Z,49.80
2018-12-20T03:16:20.725Z,49.70
2018-12-20T03:18:49.343Z,49.80
2018-12-20T03:21:18.081Z,49.80
2018-12-20T03:23:46.627Z,49.80
2018-12-20T03:26:15.262Z,49.90
2018-12-20T03:28:44.004Z,49.80
2018-12-20T03:31:12.669Z,49.90
2018-12-20T03:33:41.723Z,49.80
2018-12-20T03:36:10.424Z,49.80
2018-12-20T03:38:38.975Z,49.80
2018-12-20T03:41:07.551Z,49.80
2018-12-20T03:43:36.305Z,49.80
2018-12-20T03:46:04.825Z,49.80
2018-12-20T03:48:33.343Z,49.80
2018-12-20T03:51:02.122Z,49.80
2018-12-20T03:53:31.089Z,49.70
2018-12-20T03:55:59.688Z,49.80
2018-12-20T03:58:28.230Z,49.70
2018-12-20T04:00:56.741Z,49.70
2018-12-20T04:03:25.310Z,49.60
2018-12-20T04:05:54.143Z,49.60
2018-12-20T04:08:22.735Z,49.70
2018-12-20T04:10:51.232Z,49.60
2018-12-20T04:13:19.868Z,49.60
2018-12-20T04:15:48.416Z,49.70
2018-12-20T04:18:17.008Z,49.60
2018-12-20T04:20:45.653Z,49.60
2018-12-20T04:23:14.203Z,49.70
2018-12-20T04:25:42.761Z,49.80
2018-12-20T04:28:11.404Z,49.80
2018-12-20T04:30:39.934Z,49.70
2018-12-20T04:33:08.533Z,49.80
2018-12-20T04:35:37.187Z,49.70
2018-12-20T04:38:05.968Z,49.70
2018-12-20T04:40:34.770Z,49.80
2018-12-20T04:43:03.626Z,49.80
2018-12-20T04:45:32.140Z,49.70
2018-12-20T04:48:00.696Z,49.80
2018-12-20T04:50:29.309Z,49.80
2018-12-20T04:52:58.279Z,49.80
2018-12-20T04:55:27.160Z,49.80
2018-12-20T04:57:55.774Z,49.90
2018-12-20T05:00:24.304Z,49.90
2018-12-20T05:02:53.052Z,49.90
2018-12-20T05:05:21.741Z,49.90
2018-12-20T05:07:50.345Z,50.00
2018-12-20T05:10:19.477Z,50.00
2018-12-20T05:12:48.029Z,49.90
2018-12-20T05:15:16.651Z,49.80
2018-12-20T05:17:45.576Z,49.80
2018-12-20T05:20:14.354Z,49.70
2018-12-20T05:22:43.081Z,49.80
2018-12-20T05:25:11.680Z,49.70
2018-12-20T05:27:40.171Z,49.80
2018-12-20T05:30:08.740Z,49.80
2018-12-20T05:32:37.400Z,49.90
2018-12-20T05:35:05.957Z,49.80
2018-12-20T05:37:34.465Z,49.80
2018-12-20T05:40:03.102Z,49.80
2018-12-20T05:42:31.924Z,50.00
2018-12-20T05:45:00.947Z,50.90
2018-12-20T05:47:29.720Z,50.60
2018-12-20T05:49:58.487Z,50.90
2018-12-20T05:52:27.286Z,51.80
2018-12-20T05:54:56.122Z,51.90
2018-12-20T05:57:24.664Z,51.90
2018-12-20T05:59:53.285Z,52.20
2018-12-20T06:02:21.833Z,52.30
2018-12-20T06:04:50.472Z,52.50
2018-12-20T06:07:18.987Z,52.50
2018-12-20T06:09:47.607Z,52.30
2018-12-20T06:12:16.201Z,52.20
2018-12-20T06:14:44.879Z,52.80
2018-12-20T06:17:13.513Z,52.00
2018-12-20T06:19:42.295Z,51.60
2018-12-20T06:22:10.860Z,53.90
2018-12-20T06:24:39.406Z,53.00
2018-12-20T06:27:07.909Z,52.00
2018-12-20T06:29:36.436Z,51.90
2018-12-20T06:32:04.971Z,52.00
2018-12-20T06:34:33.486Z,52.00
2018-12-20T06:37:02.013Z,51.80
2018-12-20T06:39:30.502Z,51.80
2018-12-20T06:41:59.000Z,51.70
2018-12-20T06:44:27.519Z,51.60
2018-12-20T06:46:56.016Z,51.60
2018-12-20T06:49:24.540Z,51.60
2018-12-20T06:51:53.067Z,51.60
2018-12-20T06:54:21.592Z,51.60
2018-12-20T06:56:50.092Z,51.60
2018-12-20T06:59:18.620Z,51.60
2018-12-20T07:01:47.392Z,51.60
2018-12-20T07:04:15.912Z,51.60
2018-12-20T07:06:44.407Z,51.60
2018-12-20T07:09:12.932Z,51.60
2018-12-20T07:11:41.475Z,51.60
2018-12-20T07:14:09.948Z,51.50
2018-12-20T07:16:38.432Z,51.50
2018-12-20T07:19:06.931Z,51.60
2018-12-20T07:21:35.562Z,51.60
2018-12-20T07:24:04.087Z,51.60
2018-12-20T07:26:32.574Z,51.80
2018-12-20T07:29:01.062Z,51.90
2018-12-20T07:31:29.570Z,51.90
2018-12-20T07:33:58.208Z,51.90
2018-12-20T07:36:26.716Z,51.90
2018-12-20T07:38:55.230Z,51.90
2018-12-20T07:41:23.731Z,51.80
2018-12-20T07:43:52.259Z,51.70
2018-12-20T07:46:20.790Z,51.80
2018-12-20T07:48:49.304Z,51.80
2018-12-20T07:51:17.815Z,51.80
2018-12-20T07:53:46.324Z,51.80
2018-12-20T07:56:14.840Z,51.80
2018-12-20T07:58:43.317Z,51.80
2018-12-20T08:01:11.831Z,51.80
2018-12-20T08:03:40.340Z,52.40
2018-12-20T08:06:08.857Z,51.80
2018-12-20T08:08:37.400Z,51.80
2018-12-20T08:11:05.929Z,51.80
2018-12-20T08:13:34.490Z,51.80
2018-12-20T08:16:03.007Z,51.80
2018-12-20T08:18:31.507Z,51.70
2018-12-20T08:21:00.030Z,51.70
2018-12-20T08:23:28.582Z,51.70
2018-12-20T08:25:57.081Z,51.70
2018-12-20T08:28:25.589Z,51.70
2018-12-20T08:30:54.140Z,51.60
2018-12-20T08:33:22.659Z,51.60
2018-12-20T08:35:51.132Z,51.70
2018-12-20T08:38:19.666Z,51.70
2018-12-20T08:40:48.258Z,51.70
2018-12-20T08:43:16.820Z,51.70
2018-12-20T08:45:45.315Z,51.80
2018-12-20T08:48:13.822Z,52.20
2018-12-20T08:50:42.301Z,52.00
2018-12-20T08:53:10.788Z,52.00
2018-12-20T08:55:39.286Z,52.00
2018-12-20T08:58:07.800Z,52.10
2018-12-20T09:00:36.317Z,52.10
2018-12-20T09:03:04.828Z,52.20
2018-12-20T09:05:33.361Z,52.10
2018-12-20T09:08:01.876Z,52.10
2018-12-20T09:10:30.387Z,52.10
2018-12-20T09:12:58.876Z,52.10
2018-12-20T09:15:27.408Z,52.10
2018-12-20T09:17:55.932Z,52.10
2018-12-20T09:20:32.569Z,52.10
2018-12-20T09:22:55.025Z,52.10
2018-12-20T09:25:23.574Z,52.10
2018-12-20T09:27:52.108Z,52.10
2018-12-20T09:30:20.651Z,52.20
2018-12-20T09:32:49.168Z,52.20
2018-12-20T09:35:17.709Z,52.20
2018-12-20T09:37:46.230Z,52.10
2018-12-20T09:40:14.764Z,52.10
2018-12-20T09:42:43.295Z,52.10
2018-12-20T09:50:58.249Z,51.90
2018-12-20T09:53:26.772Z,51.90
2018-12-20T09:55:55.316Z,52.00
2018-12-20T09:58:23.863Z,51.90
2018-12-20T10:00:52.385Z,51.90
2018-12-20T10:03:21.108Z,51.90
2018-12-20T10:05:49.693Z,51.80
2018-12-20T10:08:18.933Z,51.80
2018-12-20T10:10:47.449Z,51.80
2018-12-20T10:13:15.992Z,51.80
2018-12-20T10:15:44.502Z,51.80
2018-12-20T10:18:13.126Z,51.80
2018-12-20T10:20:41.639Z,51.70
2018-12-20T10:23:10.156Z,51.70
2018-12-20T10:25:38.700Z,51.80
2018-12-20T10:28:07.408Z,51.80
2018-12-20T10:30:35.935Z,51.70
2018-12-20T10:33:04.472Z,51.60
2018-12-20T10:35:32.974Z,51.60
2018-12-20T10:38:01.512Z,51.60
2018-12-20T10:40:30.022Z,51.50
2018-12-20T10:42:58.524Z,51.60
2018-12-20T10:45:27.039Z,51.60
2018-12-20T10:47:55.564Z,51.60
2018-12-20T10:50:24.089Z,51.50
2018-12-20T10:52:52.604Z,51.50
2018-12-20T10:55:21.119Z,51.50
2018-12-20T10:57:49.646Z,51.50
2018-12-20T11:00:18.173Z,51.60
2018-12-20T11:02:51.911Z,51.50
2018-12-20T11:05:25.283Z,51.50
2018-12-20T11:07:59.876Z,51.50
2018-12-20T11:10:29.258Z,51.50
2018-12-20T11:12:59.827Z,51.50
2018-12-20T11:15:28.334Z,51.50
2018-12-20T11:17:56.829Z,51.50
2018-12-20T11:20:25.341Z,51.50
2018-12-20T11:22:53.949Z,51.40
2018-12-20T11:25:22.491Z,51.50
2018-12-20T11:27:50.985Z,51.40
2018-12-20T11:30:19.477Z,51.40
2018-12-20T11:32:47.985Z,51.30
2018-12-20T11:35:16.508Z,51.30
2018-12-20T11:37:45.037Z,51.30
2018-12-20T11:40:13.555Z,51.30
2018-12-20T11:42:42.232Z,51.30
2018-12-20T11:45:11.343Z,51.30
2018-12-20T11:47:45.839Z,51.70
2018-12-20T11:50:10.760Z,50.50
2018-12-20T11:52:42.453Z,49.70
2018-12-20T11:55:10.423Z,49.80
2018-12-20T11:57:38.935Z,49.80
2018-12-20T12:00:09.662Z,49.60
2018-12-20T12:02:38.175Z,49.80
2018-12-20T12:05:06.674Z,50.00
2018-12-20T12:07:35.207Z,50.10
2018-12-20T12:10:05.391Z,50.10
2018-12-20T12:12:34.388Z,50.10
2018-12-20T12:15:03.756Z,50.10
2018-12-20T12:17:32.271Z,50.20
2018-12-20T12:20:00.804Z,50.20
2018-12-20T12:22:29.312Z,50.20
2018-12-20T12:24:58.588Z,50.20
2018-12-20T12:27:27.324Z,50.10
2018-12-20T12:29:55.868Z,50.10
2018-12-20T12:32:24.398Z,50.00
2018-12-20T12:34:52.939Z,50.00
2018-12-20T12:37:23.822Z,50.00
2018-12-20T12:39:52.363Z,50.10
2018-12-20T12:42:20.973Z,50.00
2018-12-20T12:44:50.752Z,50.00
2018-12-20T12:47:23.481Z,50.00
2018-12-20T12:49:53.107Z,49.90
2018-12-20T12:52:21.625Z,49.90
2018-12-20T12:54:50.155Z,49.80
2018-12-20T12:57:21.209Z,49.70
2018-12-20T12:59:49.755Z,49.60
2018-12-20T13:02:19.368Z,49.50
2018-12-20T13:04:48.805Z,49.40
2018-12-20T13:07:17.607Z,49.50
2018-12-20T13:09:46.825Z,49.50
2018-12-20T13:12:15.366Z,49.30
2018-12-20T13:14:44.874Z,49.40
2018-12-20T13:17:14.428Z,49.30
2018-12-20T13:19:43.017Z,49.20
2018-12-20T13:22:18.548Z,49.20
2018-12-20T13:24:47.045Z,49.10
2018-12-20T13:27:15.599Z,49.10
2018-12-20T13:29:44.134Z,49.10
2018-12-20T13:32:12.687Z,49.10
2018-12-20T13:34:41.233Z,49.10
2018-12-20T13:37:15.794Z,49.30
2018-12-20T13:39:40.342Z,49.30
2018-12-20T13:42:09.892Z,49.40
2018-12-20T13:44:38.522Z,49.40
2018-12-20T13:47:14.048Z,49.30
2018-12-20T13:49:43.580Z,49.30
2018-12-20T13:52:15.217Z,49.30
2018-12-20T13:54:43.765Z,49.30
2018-12-20T13:57:12.313Z,49.30
2018-12-20T14:00:15.284Z,49.30
2018-12-20T14:02:44.468Z,49.20
2018-12-20T14:05:13.482Z,49.20
2018-12-20T14:07:41.984Z,49.20
2018-12-20T14:10:10.508Z,49.10
2018-12-20T14:12:39.044Z,49.20
2018-12-20T14:15:08.599Z,49.30
2018-12-20T14:17:37.166Z,49.30
2018-12-20T14:20:06.944Z,49.40
2018-12-20T14:22:35.517Z,49.30
2018-12-20T14:25:04.249Z,49.30
2018-12-20T14:27:33.460Z,49.40
2018-12-20T14:30:01.962Z,49.40
2018-12-20T14:32:30.491Z,49.40
2018-12-20T14:34:59.045Z,49.40
2018-12-20T14:37:27.569Z,49.40
2018-12-20T14:39:56.201Z,49.40
2018-12-20T14:42:24.772Z,49.30
2018-12-20T14:44:53.344Z,49.40
2018-12-20T14:47:23.788Z,49.30
2018-12-20T14:49:52.479Z,49.30
2018-12-20T14:52:21.652Z,49.40
2018-12-20T14:54:51.065Z,49.40
2018-12-20T14:57:20.556Z,49.40
2018-12-20T14:59:53.267Z,49.50
2018-12-20T15:02:24.168Z,49.40
2018-12-20T15:04:54.205Z,49.40
2018-12-20T15:07:22.760Z,49.20
2018-12-20T15:09:51.312Z,49.20
2018-12-20T15:12:19.848Z,49.30
2018-12-20T15:14:48.365Z,50.00
2018-12-20T15:17:17.859Z,50.70
2018-12-20T15:19:46.476Z,50.80
2018-12-20T15:22:16.337Z,50.90
2018-12-20T15:24:46.549Z,50.90
2018-12-20T15:27:15.689Z,51.00
2018-12-20T15:29:44.326Z,50.90
2018-12-20T15:32:12.891Z,50.50
2018-12-20T15:34:41.558Z,50.40
2018-12-20T15:37:10.131Z,50.40
2018-12-20T15:39:38.745Z,50.30
2018-12-20T15:42:07.334Z,50.20
2018-12-20T15:44:35.857Z,50.20
2018-12-20T15:47:04.411Z,50.20
2018-12-20T15:49:32.985Z,50.20
2018-12-20T15:52:01.549Z,50.30
2018-12-20T15:54:30.590Z,50.20
2018-12-20T15:56:59.986Z,50.20
2018-12-20T15:59:28.629Z,50.20
2018-12-20T16:01:57.578Z,50.10
2018-12-20T16:04:26.095Z,50.10
2018-12-20T16:06:54.677Z,50.00
2018-12-20T16:09:23.618Z,50.00
2018-12-20T16:11:52.207Z,50.00
2018-12-20T16:14:20.717Z,50.00
2018-12-20T16:16:49.276Z,50.00
2018-12-20T16:19:17.791Z,50.00
2018-12-20T16:21:46.335Z,49.90
2018-12-20T16:24:15.250Z,49.90
2018-12-20T16:26:43.774Z,49.90
2018-12-20T16:29:12.796Z,49.90
2018-12-20T16:31:41.555Z,49.80
2018-12-20T16:34:10.101Z,49.70
2018-12-20T16:36:39.168Z,49.70
2018-12-20T16:39:07.760Z,50.00
2018-12-20T16:41:36.323Z,50.50
2018-12-20T16:44:04.880Z,50.30
2018-12-20T16:46:33.485Z,50.30
2018-12-20T16:49:02.040Z,50.00
2018-12-20T16:51:30.601Z,50.60
2018-12-20T16:53:59.284Z,50.20
2018-12-20T16:56:27.809Z,50.10
2018-12-20T16:58:56.336Z,50.20
2018-12-20T17:01:24.839Z,50.30
2018-12-20T17:06:37.318Z,50.30
2018-12-20T17:09:08.764Z,50.40
2018-12-20T17:11:37.308Z,50.30
2018-12-20T17:14:05.824Z,50.30
2018-12-20T17:16:34.368Z,50.20
2018-12-20T17:19:02.876Z,50.10
2018-12-20T17:21:31.417Z,50.10
2018-12-20T17:23:59.924Z,49.90
2018-12-20T17:26:28.431Z,49.90
2018-12-20T17:28:56.950Z,49.80
2018-12-20T17:31:25.448Z,49.80
2018-12-20T17:33:53.949Z,49.80
2018-12-20T17:36:22.448Z,49.70
2018-12-20T17:38:50.969Z,49.60
2018-12-20T17:41:19.493Z,49.60
2018-12-20T17:43:48.019Z,49.60
2018-12-20T17:46:16.530Z,49.50
2018-12-20T17:48:45.073Z,50.20
2018-12-20T17:51:13.599Z,49.50
2018-12-20T17:53:42.153Z,49.70
2018-12-20T17:56:10.688Z,50.60
2018-12-20T17:58:39.770Z,50.80
2018-12-20T18:01:08.432Z,50.50
2018-12-20T18:03:36.977Z,50.50
2018-12-20T18:06:05.473Z,50.30
2018-12-20T18:08:33.999Z,50.00
2018-12-20T18:11:02.524Z,49.80
2018-12-20T18:13:31.047Z,49.80
2018-12-20T18:15:59.572Z,49.70
2018-12-20T18:18:28.064Z,49.60
2018-12-20T18:20:56.637Z,49.50
2018-12-20T18:23:25.185Z,49.40
2018-12-20T18:25:53.739Z,49.40
2018-12-20T18:28:22.295Z,49.20
2018-12-20T18:30:50.851Z,49.20
2018-12-20T18:33:19.404Z,49.10
2018-12-20T18:35:47.995Z,49.00
2018-12-20T18:38:16.545Z,49.20
2018-12-20T18:40:45.387Z,49.10
2018-12-20T18:43:13.897Z,49.10
2018-12-20T18:45:42.429Z,49.00
2018-12-20T18:48:10.956Z,49.20
2018-12-20T18:50:39.516Z,49.00
2018-12-20T18:53:08.096Z,49.10
2018-12-20T18:55:36.637Z,49.20
2018-12-20T18:58:05.195Z,49.30
2018-12-20T19:00:35.896Z,49.00
2018-12-20T19:03:04.267Z,49.30
2018-12-20T19:05:32.821Z,49.40
2018-12-20T19:08:01.878Z,49.20
2018-12-20T19:10:36.516Z,49.20
2018-12-20T19:13:05.425Z,49.10
2018-12-20T19:15:34.484Z,49.20
2018-12-20T19:18:03.082Z,49.00
2018-12-20T19:20:31.602Z,49.00
2018-12-20T19:23:03.137Z,48.90
2018-12-20T19:25:32.666Z,48.90
2018-12-20T19:28:02.981Z,48.80
2018-12-20T19:30:31.510Z,48.80
2018-12-20T19:33:00.170Z,48.80
2018-12-20T19:35:29.822Z,48.80
2018-12-20T19:37:59.472Z,48.90
2018-12-20T19:40:28.182Z,48.70
2018-12-20T19:42:56.808Z,48.70
2018-12-20T19:45:25.677Z,48.70
2018-12-20T19:47:54.300Z,48.70
2018-12-20T19:50:22.808Z,48.50
2018-12-20T19:52:53.548Z,48.70
2018-12-20T19:55:22.153Z,48.70
2018-12-20T19:57:51.732Z,48.80
2018-12-20T20:00:22.752Z,48.60
2018-12-20T20:02:51.317Z,48.60
2018-12-20T20:05:20.341Z,48.70
2018-12-20T20:07:49.034Z,48.50
2018-12-20T20:10:17.619Z,49.40
2018-12-20T20:12:47.689Z,48.90
2018-12-20T20:15:16.851Z,49.30
2018-12-20T20:17:45.820Z,49.40
2018-12-20T20:20:14.614Z,49.40
2018-12-20T20:22:43.390Z,49.40
2018-12-20T20:25:11.941Z,49.50
2018-12-20T20:27:40.487Z,49.70
2018-12-20T20:30:13.528Z,49.90
2018-12-20T20:32:43.822Z,50.00
2018-12-20T20:35:12.449Z,49.90
2018-12-20T20:37:41.207Z,50.00
2018-12-20T20:40:12.806Z,50.00
2018-12-20T20:42:41.801Z,50.00
2018-12-20T20:45:12.120Z,50.10
2018-12-20T20:47:41.332Z,50.20
2018-12-20T20:50:10.273Z,50.10
2018-12-20T20:52:39.802Z,50.20
2018-12-20T20:55:08.869Z,50.30
2018-12-20T20:57:37.835Z,50.30
2018-12-20T21:00:11.733Z,50.40
2018-12-20T21:02:41.194Z,50.40
2018-12-20T21:05:10.692Z,50.40
2018-12-20T21:07:39.355Z,50.40
2018-12-20T21:10:09.526Z,50.60
2018-12-20T21:12:38.109Z,50.60
2018-12-20T21:15:10.565Z,49.90
2018-12-20T21:17:39.177Z,50.60
2018-12-20T21:20:11.252Z,50.50
2018-12-20T21:22:39.810Z,50.30
2018-12-20T21:25:08.398Z,50.30
2018-12-20T21:27:37.003Z,50.40
2018-12-20T21:30:07.145Z,50.30
2018-12-20T21:32:35.715Z,50.40
2018-12-20T21:35:04.253Z,50.30
2018-12-20T21:37:32.761Z,50.70
2018-12-20T21:40:01.341Z,50.90
2018-12-20T21:42:29.893Z,50.90
2018-12-20T21:44:58.569Z,50.90
2018-12-20T21:47:27.101Z,50.80
2018-12-20T21:49:55.617Z,50.60
2018-12-20T21:52:24.142Z,50.80
2018-12-20T21:54:52.713Z,50.60
2018-12-20T21:57:21.615Z,50.80
2018-12-20T21:59:50.294Z,50.70
2018-12-20T22:02:18.824Z,50.80
2018-12-20T22:04:47.349Z,50.80
2018-12-20T22:07:15.906Z,50.60
2018-12-20T22:09:44.477Z,50.60
2018-12-20T22:12:13.028Z,50.50
2018-12-20T22:14:41.588Z,50.60
2018-12-20T22:17:10.164Z,50.50
2018-12-20T22:19:38.700Z,50.70
2018-12-20T22:22:07.225Z,50.80
2018-12-20T22:24:35.748Z,50.60
2018-12-20T22:27:04.289Z,50.50
2018-12-20T22:29:32.808Z,50.50
2018-12-20T22:32:01.318Z,50.50
2018-12-20T22:34:29.857Z,50.60
2018-12-20T22:36:58.361Z,50.60
2018-12-20T22:39:26.882Z,50.60
2018-12-20T22:41:55.387Z,50.60
2018-12-20T22:44:23.892Z,50.60
2018-12-20T22:46:52.461Z,50.60
2018-12-20T22:49:21.015Z,50.60
2018-12-20T22:51:49.513Z,50.50
2018-12-20T22:54:18.031Z,50.60
2018-12-20T22:59:20.404Z,50.60
2018-12-20T23:01:48.918Z,50.70
2018-12-20T23:04:17.441Z,50.70
2018-12-20T23:06:45.948Z,50.70
2018-12-20T23:09:15.084Z,51.30
2018-12-20T23:11:43.682Z,50.60
2018-12-20T23:14:12.185Z,50.60
2018-12-20T23:16:40.705Z,50.60
2018-12-20T23:19:09.234Z,50.70
2018-12-20T23:21:37.789Z,50.70
2018-12-20T23:24:06.344Z,50.70
2018-12-20T23:26:35.328Z,50.70
2018-12-20T23:29:03.867Z,50.60
2018-12-20T23:31:32.410Z,50.60
2018-12-20T23:34:00.900Z,50.60
2018-12-20T23:36:29.444Z,50.70
2018-12-20T23:38:58.207Z,50.60
2018-12-20T23:41:26.744Z,50.60
2018-12-20T23:43:55.291Z,50.60
2018-12-20T23:46:23.840Z,50.60
2018-12-20T23:48:52.353Z,50.50
2018-12-20T23:51:20.924Z,50.60
2018-12-20T23:53:49.431Z,50.50
2018-12-20T23:56:17.960Z,50.50
2018-12-20T23:58:46.521Z,50.50
